CodeNameFirst purchased atOnCurrent priceGain/lossTotal invested
MMM 3M Co $169.80 $169.80 0% $0.00
AOS A. O. Smith Corp $54.93 $54.93 0% $0.00
ABT Abbott Laboratories $76.57 2020-04-02 06:40:46 $107.79 40.77% -$3,785.60
ABBV AbbVie Inc $84.34 2020-04-02 06:40:46 $84.34 0% $0.00
ABMD ABIOMED, Inc. $281.42 2020-04-02 06:40:46 $281.42 0% $0.00
ACN Accenture Plc $229.70 2020-04-02 06:40:46 $229.70 0% $0.00
ATVI Activision Blizzard, Inc. $60.70 2020-01-08 09:51:01 $81.04 33.51% $607.00
ADBE Adobe Inc $488.50 2020-01-08 09:51:01 $488.50 0% $0.00
AAP Advance Auto Parts, Inc. $154.72 2020-01-08 09:51:01 $154.72 0% $0.00
AMD Advanced Micro Devices, Inc. $47.67 2020-01-08 09:51:27 $81.96 71.93% $476.70
AES AES Corp $20.65 2020-01-08 09:51:27 $20.65 0% $0.00
AMG Affiliated Managers Group, Inc. $79.40 2020-01-08 09:51:27 $79.40 0% $0.00
AFL AFLAC Incorporated $37.85 2020-01-08 09:51:27 $37.85 0% $0.00
A Agilent Technologies Inc $106.17 2020-01-08 09:51:27 $106.17 0% $0.00
APD Air Products & Chemicals, Inc. $294.00 2020-01-08 09:51:27 $294.00 0% $0.00
AKAM Akamai Technologies, Inc. $106.75 2020-01-08 09:51:27 $106.75 0% $0.00
ALK Alaska Air Group, Inc. $41.57 2020-01-08 09:51:27 $41.57 0% $0.00
ALB Albemarle Corporation $83.25 2020-02-11 02:52:52 $96.48 15.89% $111,967.82
ARE Alexandria Real Estate Equities Inc $160.54 2020-02-11 02:52:52 $160.54 0% $0.00
ALXN Alexion Pharmaceuticals, Inc. $121.61 2020-02-11 02:52:52 $121.61 0% $0.00
ALGN Align Technology, Inc. $469.56 2020-02-11 02:52:52 $469.56 0% $0.00
ALLE Allegion PLC $102.88 2020-02-11 02:52:52 $102.88 0% $0.00
AGN Allergan plc $0.30 2020-02-11 02:52:52 $0.30 0% $0.00
ADS Alliance Data Systems Corporation $48.61 2020-02-11 02:52:52 $48.61 0% $0.00
LNT Alliant Energy Corporation $56.67 2020-02-11 02:52:52 $56.67 0% $0.00
ALL Allstate Corp $91.25 2020-02-11 02:52:52 $91.25 0% $0.00
GOOGL Alphabet Inc Class A $1,117.03 2020-04-03 03:12:21 $1,632.98 46.19% $78,912.86
GOOG Alphabet Inc Class C $1,641.00 2020-04-03 03:12:21 $1,641.00 0% $0.00
MO Altria Group Inc $39.08 2020-04-03 03:12:21 $39.08 0% $0.00
AMZN Amazon.com, Inc. $1,847.84 2020-01-02 05:40:03 $3,204.40 73.41% $82,626.09
AEE Ameren Corp $83.39 2020-01-02 05:40:03 $83.39 0% $0.00
AAL American Airlines Group Inc $13.10 2020-09-01 10:19:50 $12.60 -3.82% $820.01
AEP American Electric Power Company Inc $91.88 2020-09-01 10:19:50 $91.88 0% $0.00
AXP American Express Company $100.98 2020-09-01 10:19:50 $100.98 0% $0.00
AIG American International Group Inc $32.38 2020-09-01 10:19:50 $32.38 0% $0.00
AMT American Tower Corp $237.72 2020-09-01 10:19:50 $237.72 0% $0.00
AWK American Water Works Company Inc $154.08 2020-09-01 10:19:50 $154.08 0% $0.00
AMP Ameriprise Financial, Inc. $170.39 2020-09-01 10:19:50 $170.39 0% $0.00
ABC AmerisourceBergen Corp. $99.38 2020-09-01 10:19:50 $99.38 0% $0.00
AME AMETEK, Inc. $107.76 2020-09-01 10:19:50 $107.76 0% $0.00
AMGN Amgen, Inc. $227.16 2020-09-01 10:19:50 $227.16 0% $0.00
APH Amphenol Corporation $119.75 2020-09-01 10:19:50 $119.75 0% $0.00
APC Anadarko Petroleum Corporation $0.13 2020-09-01 10:19:50 $0.13 0% $0.00
ADI Analog Devices, Inc. $124.20 2020-09-01 10:19:50 $124.20 0% $0.00
ANSS ANSYS, Inc. $330.22 2020-09-01 10:19:50 $330.22 0% $0.00
ANTM Anthem Inc $310.76 2020-09-01 10:19:50 $310.76 0% $0.00
AON Aon PLC $207.31 2020-09-01 10:19:50 $207.31 0% $0.00
APA Apache Corporation $9.28 2020-09-01 10:19:50 $9.28 0% $0.00
AIV Apartment Investment and Management Co $33.85 2020-09-01 10:19:50 $33.85 0% $0.00
AAPL Apple Inc. $326.79 2020-01-29 14:22:55 $115.04 -64.8% $89,549.96
AMAT Applied Materials, Inc. $61.70 2020-01-08 09:52:30 $60.95 -1.22% $308.50
APTV Aptiv PLC $100.29 2020-01-08 09:52:30 $100.29 0% $0.00
ADM Archer Daniels Midland Co $51.87 2020-01-08 09:52:30 $51.87 0% $0.00
ARNC Arconic Inc $23.89 2020-01-08 09:52:30 $23.89 0% $0.00
ANET Arista Networks Inc $214.11 2020-01-08 09:52:30 $214.11 0% $0.00
AJG Arthur J Gallagher & Co $107.92 2020-01-08 09:52:30 $107.92 0% $0.00
AIZ Assurant, Inc. $125.99 2020-01-08 09:52:30 $125.99 0% $0.00
T AT&T Inc. $27.82 2020-01-08 09:52:30 $27.82 0% $0.00
ADSK Autodesk, Inc. $254.42 2020-01-08 09:52:30 $254.42 0% $0.00
ADP Automatic Data Processing $149.20 2020-01-08 09:52:30 $149.20 0% $0.00
AZO AutoZone, Inc. $1,183.16 2020-01-08 09:52:30 $1,183.16 0% $0.00
AVB AvalonBay Communities Inc $145.79 2020-01-08 09:52:30 $145.79 0% $0.00
AVY Avery Dennison Corp $141.74 2020-01-08 09:52:30 $141.74 0% $0.00
BHGE Baker Hughes A GE Co $21.29 2020-01-08 09:52:30 $21.29 0% $0.00
BLL Ball Corporation $92.72 2020-01-08 09:52:30 $92.72 0% $0.00
BAC Bank of America Corp $24.90 2020-01-08 09:52:30 $24.90 0% $0.00
BK Bank of New York Mellon Corp $37.67 2020-01-08 09:52:30 $37.67 0% $0.00
BAX Baxter International Inc $81.09 2020-01-08 09:52:30 $81.09 0% $0.00
BBT BB&T Corporation $0.15 2020-01-08 09:52:30 $0.15 0% $0.00
BDX Becton Dickinson and Co $240.28 2020-01-08 09:52:30 $240.28 0% $0.00
BRK.B Berkshire Hathaway Inc. Class B $226.48 2020-02-10 11:40:20 $212.71 -6.08% $10,228.75
BBY Best Buy Co Inc $118.21 2020-02-10 11:40:20 $118.21 0% $0.00
BIIB Biogen Inc $265.00 2020-02-10 11:40:20 $265.00 0% $0.00
BTC Bitcoin $7,108.87 2020-01-02 00:49:11 $12,913.53 81.65% $99,318.36
BLK BlackRock, Inc. $637.31 2020-01-02 00:49:11 $637.31 0% $0.00
BA Boeing Co $324.17 2020-01-17 15:06:09 $167.36 -48.37% $26,828.29
BKNG Booking Holdings Inc $1,823.55 2020-01-17 15:06:09 $1,823.55 0% $0.00
BWA BorgWarner Inc. $39.75 2020-01-17 15:06:09 $39.75 0% $0.00
BXP Boston Properties, Inc. $77.67 2020-01-17 15:06:09 $77.67 0% $0.00
BSX Boston Scientific Corporation $37.17 2020-01-17 15:06:09 $37.17 0% $0.00
BHF Brighthouse Financial Inc $32.97 2020-01-17 15:06:09 $32.97 0% $0.00
BMY Bristol-Myers Squibb Co $60.13 2020-01-17 15:06:09 $60.13 0% $0.00
AVGO Broadcom Inc $372.72 2020-01-17 15:06:09 $372.72 0% $0.00
BR Broadridge Financial Solutions, Inc. $145.73 2020-01-17 15:06:09 $145.73 0% $0.00
BF.B Brown-Forman Corporation Class B $74.40 2020-01-17 15:06:09 $74.40 0% $0.00
CHRW C.H. Robinson Worldwide Inc $100.54 2020-01-17 15:06:09 $100.54 0% $0.00
COG Cabot Oil & Gas Corporation $19.68 2020-01-17 15:06:09 $19.68 0% $0.00
CDNS Cadence Design Systems Inc $112.05 2020-01-17 15:06:09 $112.05 0% $0.00
CPB Campbell Soup Company $48.55 2020-01-17 15:06:09 $48.55 0% $0.00
COF Capital One Financial Corp. $77.99 2020-01-17 15:06:09 $77.99 0% $0.00
CAH Cardinal Health Inc $49.34 2020-01-17 15:06:09 $49.34 0% $0.00
KMX CarMax, Inc $90.95 2020-01-17 15:06:09 $90.95 0% $0.00
CCL Carnival Corp $15.36 2020-01-17 15:06:09 $15.36 0% $0.00
CAT Caterpillar Inc. $168.59 2020-01-17 15:06:09 $168.59 0% $0.00
CBOE Cboe Global Markets Inc $81.72 2020-01-17 15:06:09 $81.72 0% $0.00
CBRE CBRE Group Inc $46.66 2020-01-17 15:06:09 $46.66 0% $0.00
CBS CBS Corporation Common Stock $0.22 2020-01-17 15:06:09 $0.22 0% $0.00
CELG Celgene Corporation $96.70 2020-01-17 15:06:09 $96.70 0% $0.00
CNC Centene Corp $67.42 2020-01-17 15:06:09 $67.42 0% $0.00
CNP CenterPoint Energy, Inc. $22.23 2020-01-17 15:06:09 $22.23 0% $0.00
CTL Centurylink Inc $1.48 2020-01-17 15:06:09 $1.48 0% $0.00
CERN Cerner Corporation $73.72 2020-01-17 15:06:09 $73.72 0% $0.00
CF CF Industries Holdings, Inc. $27.58 2020-01-17 15:06:09 $27.58 0% $0.00
SCHW Charles Schwab Corporation Common Stock $40.35 2020-01-17 15:06:09 $40.35 0% $0.00
CHTR Charter Communications Inc $593.28 2020-01-17 15:06:09 $593.28 0% $0.00
CVX Chevron Corporation $72.57 2020-01-17 15:06:09 $72.57 0% $0.00
CMG Chipotle Mexican Grill, Inc. $1,339.08 2020-01-17 15:06:09 $1,339.08 0% $0.00
CB Chubb Ltd $129.02 2020-01-17 15:06:09 $129.02 0% $0.00
CHD Church & Dwight Co., Inc. $91.91 2020-01-17 15:06:09 $91.91 0% $0.00
CI Cigna Holding Co $184.49 2020-01-17 15:06:09 $184.49 0% $0.00
XEC Cimarex Energy Co $28.04 2020-01-17 15:06:09 $28.04 0% $0.00
CINF Cincinnati Financial Corporation $77.40 2020-01-17 15:06:09 $77.40 0% $0.00
CTAS Cintas Corporation $338.07 2020-01-17 15:06:09 $338.07 0% $0.00
CSCO Cisco Systems, Inc. $38.82 2020-01-17 15:06:09 $38.82 0% $0.00
C Citigroup Inc $43.95 2020-01-17 15:06:09 $43.95 0% $0.00
CFG Citizens Financial Group Inc $29.13 2020-01-17 15:06:09 $29.13 0% $0.00
CTXS Citrix Systems, Inc. $122.72 2020-01-17 15:06:09 $122.72 0% $0.00
CLX Clorox Co $211.14 2020-01-17 15:06:09 $211.14 0% $0.00
CME CME Group Inc $163.86 2020-01-17 15:06:09 $163.86 0% $0.00
CMS CMS Energy Corporation $65.85 2020-01-17 15:06:09 $65.85 0% $0.00
CTSH Cognizant Technology Solutions Corp $74.12 2020-01-17 15:06:09 $74.12 0% $0.00
CL Colgate-Palmolive Company $79.34 2020-01-17 15:06:09 $79.34 0% $0.00
CMCSA Comcast Corporation $45.06 2020-01-17 15:06:09 $45.06 0% $0.00
CMA Comerica Incorporated $46.39 2020-01-17 15:06:09 $46.39 0% $0.00
CAG Conagra Brands Inc $38.00 2020-01-17 15:06:09 $38.00 0% $0.00
CXO Concho Resources Inc $46.97 2020-01-17 15:06:09 $46.97 0% $0.00
COP ConocoPhillips $32.54 2020-01-17 15:06:09 $32.54 0% $0.00
ED Consolidated Edison, Inc. $81.60 2020-01-17 15:06:09 $81.60 0% $0.00
STZ Constellation Brands, Inc. Class A $179.46 2020-01-17 15:06:09 $179.46 0% $0.00
COO Cooper Companies Inc $356.45 2020-01-17 15:06:09 $356.45 0% $0.00
CPRT Copart, Inc. $114.29 2020-01-17 15:06:09 $114.29 0% $0.00
GLW Corning Incorporated $35.56 2020-01-17 15:06:09 $35.56 0% $0.00
COST Costco Wholesale Corporation $374.60 2020-01-17 15:06:09 $374.60 0% $0.00
COTY Coty Inc $3.39 2020-01-17 15:06:09 $3.39 0% $0.00
CCI CROWN CASTLE IN/SH SH $158.47 2020-01-17 15:06:09 $158.47 0% $0.00
CSX CSX Corporation $81.29 2020-01-17 15:06:09 $81.29 0% $0.00
CMI Cummins Inc. $226.28 2020-01-17 15:06:09 $226.28 0% $0.00
CVS CVS Health Corp $72.49 2020-01-08 09:53:36 $60.25 -16.89% $144.98
DHI D. R. Horton Inc $73.06 2020-01-08 09:53:36 $73.06 0% $0.00
DHR Danaher Corporation $232.66 2020-01-08 09:53:36 $232.66 0% $0.00
DRI Darden Restaurants, Inc. $99.53 2020-01-08 09:53:36 $99.53 0% $0.00
DVA Davita Inc $91.05 2020-01-08 09:53:36 $91.05 0% $0.00
DE Deere & Company $239.53 2020-01-08 09:53:36 $239.53 0% $0.00
DAL Delta Air Lines, Inc. $34.00 2020-01-08 09:53:36 $34.00 0% $0.00
XRAY DENTSPLY SIRONA Inc $49.15 2020-01-08 09:53:36 $49.15 0% $0.00
DVN Devon Energy Corp $9.36 2020-01-08 09:53:36 $9.36 0% $0.00
FANG Diamondback Energy Inc $29.03 2020-01-08 09:53:36 $29.03 0% $0.00
DLR DIGITAL RLTY TR/SH $152.60 2020-01-08 09:53:36 $152.60 0% $0.00
DFS Discover Financial Services $68.00 2020-01-08 09:53:36 $68.00 0% $0.00
DISCA DISCOVERY COMMUNICATIONS INC. Common Stock $21.10 2020-01-08 09:53:36 $21.10 0% $0.00
DISCK Discovery Inc Series C $19.11 2020-01-08 09:53:36 $19.11 0% $0.00
DISH DISH Network Corp $27.24 2020-01-08 09:53:36 $27.24 0% $0.00
DG Dollar General Corp. $215.44 2020-01-08 09:53:36 $215.44 0% $0.00
DLTR Dollar Tree, Inc. $95.47 2020-01-08 09:53:36 $95.47 0% $0.00
D Dominion Energy Inc $81.14 2020-01-08 09:53:36 $81.14 0% $0.00
DOV Dover Corp $116.27 2020-01-08 09:53:36 $116.27 0% $0.00
DWDP DowDuPont Inc $30.52 2020-01-08 09:53:36 $30.52 0% $0.00
DTE DTE Energy Co $125.15 2020-01-08 09:53:36 $125.15 0% $0.00
DUK Duke Energy Corp $92.78 2020-01-08 09:53:36 $92.78 0% $0.00
DRE Duke Realty Corp $38.95 2020-01-08 09:53:36 $38.95 0% $0.00
DXC DXC Technology Co $19.84 2020-01-08 09:53:36 $19.84 0% $0.00
ETFC E*TRADE Financial Corp $49.26 2020-01-08 09:53:36 $49.26 0% $0.00
EMN Eastman Chemical Company $87.32 2020-01-08 09:53:36 $87.32 0% $0.00
ETN Eaton Corporation PLC $109.81 2020-01-08 09:53:36 $109.81 0% $0.00
EBAY eBay Inc $36.11 2020-01-02 05:39:26 $53.79 48.96% $361.10
ECL Ecolab Inc. $204.87 2020-01-02 05:39:26 $204.87 0% $0.00
EIX Edison International $60.49 2020-01-02 05:39:26 $60.49 0% $0.00
EW Edwards Lifesciences Corp $80.41 2020-01-02 05:39:26 $80.41 0% $0.00
EA Electronic Arts Inc. $126.77 2020-01-02 05:39:26 $126.77 0% $0.00
LLY Eli Lilly And Co $142.38 2020-01-02 05:39:26 $142.38 0% $0.00
EMR Emerson Electric Co. $70.02 2020-01-02 05:39:26 $70.02 0% $0.00
ETR Entergy Corporation $108.95 2020-01-02 05:39:26 $108.95 0% $0.00
EOG EOG Resources Inc $37.51 2020-01-02 05:39:26 $37.51 0% $0.00
EFX Equifax Inc. $152.95 2020-01-02 05:39:26 $152.95 0% $0.00
EQIX Equinix Inc $777.03 2020-01-02 05:39:26 $777.03 0% $0.00
EQR Equity Residential $51.31 2020-01-02 05:39:26 $51.31 0% $0.00
ESS Essex Property Trust Inc $203.23 2020-01-02 05:39:26 $203.23 0% $0.00
EL Estee Lauder Companies Inc $235.23 2020-01-02 05:39:26 $235.23 0% $0.00
RE Everest Re Group Ltd $214.02 2020-01-02 05:39:26 $214.02 0% $0.00
EVRG Evergy Inc $56.37 2020-01-02 05:39:26 $56.37 0% $0.00
ES Eversource Energy $91.97 2020-01-02 05:39:26 $91.97 0% $0.00
EXC Exelon Corporation $42.20 2020-01-02 05:39:26 $42.20 0% $0.00
EXPE Expedia Group Inc $102.72 2020-01-02 05:39:26 $102.72 0% $0.00
EXPD Expeditors International of Washington $95.20 2020-01-02 05:39:26 $95.20 0% $0.00
ESRX EXPRESS SCRIPTS/SH $94.19 2020-01-02 05:39:26 $94.19 0% $0.00
EXR Extra Space Storage, Inc. $118.66 2020-01-02 05:39:26 $118.66 0% $0.00
XOM Exxon Mobil Corporation $34.16 2020-01-02 05:39:26 $34.16 0% $0.00
FFIV F5 Networks, Inc. $128.36 2020-01-02 05:39:26 $128.36 0% $0.00
FB Facebook, Inc. Common Stock $284.79 2020-01-02 05:39:26 $284.79 0% $0.00
FAST Fastenal Company $45.00 2020-01-02 05:39:26 $45.00 0% $0.00
FRT Federal Realty Investment Trust $76.72 2020-01-02 05:39:26 $76.72 0% $0.00
FDX FedEx Corporation $283.56 2020-01-02 05:39:26 $283.56 0% $0.00
FIS Fidelity National Information Servcs Inc $144.40 2020-01-02 05:39:26 $144.40 0% $0.00
FITB Fifth Third Bancorp $24.42 2020-01-02 05:39:26 $24.42 0% $0.00
FE FirstEnergy Corp. $33.30 2020-01-02 05:39:26 $33.30 0% $0.00
FISV Fiserv Inc $101.18 2020-01-02 05:39:26 $101.18 0% $0.00
FLT FleetCor Technologies, Inc. $259.20 2020-01-02 05:39:26 $259.20 0% $0.00
FLIR FLIR Systems, Inc. $36.16 2020-01-02 05:39:26 $36.16 0% $0.00
FLS Flowserve Corp $31.75 2020-01-02 05:39:26 $31.75 0% $0.00
FLR Fluor Corporation (NEW) $12.20 2020-01-02 05:39:26 $12.20 0% $0.00
FMC FMC Corp $107.78 2020-01-02 05:39:26 $107.78 0% $0.00
FL Foot Locker, Inc. $39.77 2020-01-02 05:39:26 $39.77 0% $0.00
F Ford Motor Company $8.16 2020-01-02 05:39:26 $8.16 0% $0.00
FTNT Fortinet Inc $130.38 2020-01-02 05:39:26 $130.38 0% $0.00
FTV Fortive Corp $66.50 2020-01-02 05:39:26 $66.50 0% $0.00
FBHS Fortune Brands Home & Security Inc $85.47 2020-01-02 05:39:26 $85.47 0% $0.00
BEN Franklin Resources, Inc. $23.22 2020-01-02 05:39:26 $23.22 0% $0.00
FCX Freeport-McMoRan Inc $18.36 2020-01-02 05:39:26 $18.36 0% $0.00
GPS Gap Inc $21.42 2020-01-02 05:39:26 $21.42 0% $0.00
GRMN Garmin Ltd. $100.84 2020-01-02 05:39:26 $100.84 0% $0.00
IT Gartner Inc $128.13 2020-01-02 05:39:26 $128.13 0% $0.00
GD General Dynamics Corporation $140.70 2020-01-02 05:39:26 $140.70 0% $0.00
GE General Electric Company $7.63 2020-01-02 05:39:26 $7.63 0% $0.00
GIS General Mills, Inc. $61.78 2020-01-02 05:39:26 $61.78 0% $0.00
GM General Motors Company $36.83 2020-01-02 05:39:26 $36.83 0% $0.00
GPC Genuine Parts Company $98.78 2020-01-02 05:39:26 $98.78 0% $0.00
GILD Gilead Sciences, Inc. $78.08 2020-07-21 04:24:23 $60.79 -22.14% $1,212.20
GPN Global Payments Inc $176.99 2020-07-21 04:24:23 $176.99 0% $0.00
GS Goldman Sachs Group Inc $205.04 2020-07-21 04:24:23 $205.04 0% $0.00
GT Goodyear Tire & Rubber Co $11.00 2020-07-21 04:24:23 $11.00 0% $0.00
HRB H & R Block Inc $18.40 2020-07-21 04:24:23 $18.40 0% $0.00
HAL Halliburton Company $13.31 2020-07-21 04:24:23 $13.31 0% $0.00
HBI Hanesbrands Inc. $17.58 2020-07-21 04:24:23 $17.58 0% $0.00
HOG Harley-Davidson Inc $30.07 2020-07-21 04:24:23 $30.07 0% $0.00
HRS Harris Corporation $145.00 2020-07-21 04:24:23 $145.00 0% $0.00
HIG Hartford Financial Services Group Inc $40.61 2020-07-21 04:24:23 $40.61 0% $0.00
HAS Hasbro, Inc. $92.00 2020-07-21 04:24:23 $92.00 0% $0.00
HCA HCA Healthcare Inc $136.59 2020-07-21 04:24:23 $136.59 0% $0.00
HCP HCP, Inc. $34.59 2020-07-21 04:24:23 $34.59 0% $0.00
HP Helmerich & Payne, Inc. $15.64 2020-07-21 04:24:23 $15.64 0% $0.00
HSIC Henry Schein, Inc. $67.79 2020-07-21 04:24:23 $67.79 0% $0.00
HSY Hershey Co $146.34 2020-07-21 04:24:23 $146.34 0% $0.00
HES Hess Corp. $39.37 2020-07-21 04:24:23 $39.37 0% $0.00
HPE Hewlett Packard Enterprise Co $9.48 2020-07-21 04:24:23 $9.48 0% $0.00
HLT Hilton Hotels Corporation Common Stock $94.61 2020-07-21 04:24:23 $94.61 0% $0.00
HFC HollyFrontier Corp $20.39 2020-07-21 04:24:23 $20.39 0% $0.00
HOLX Hologic, Inc. $67.91 2020-07-21 04:24:23 $67.91 0% $0.00
HD Home Depot Inc $283.00 2020-07-21 04:24:23 $283.00 0% $0.00
HON Honeywell International Inc. $175.54 2020-07-21 04:24:23 $175.54 0% $0.00
HRL Hormel Foods Corp $49.61 2020-07-21 04:24:23 $49.61 0% $0.00
HST Host Hotels and Resorts Inc $11.64 2020-07-21 04:24:23 $11.64 0% $0.00
HPQ HP Inc $19.12 2020-07-21 04:24:23 $19.12 0% $0.00
HUM Humana Inc $444.31 2020-07-21 04:24:23 $444.31 0% $0.00
HBAN Huntington Bancshares Incorporated $10.47 2020-07-21 04:24:23 $10.47 0% $0.00
HII Huntington Ingalls Industries Inc $152.82 2020-07-21 04:24:23 $152.82 0% $0.00
IBM IBM Common Stock $116.00 2020-07-21 04:24:23 $116.00 0% $0.00
IDXX IDEXX Laboratories, Inc. $429.66 2020-07-21 04:24:23 $429.66 0% $0.00
INFO IHS Markit Ltd $82.99 2020-07-21 04:24:23 $82.99 0% $0.00
ITW Illinois Tool Works Inc. $206.70 2020-07-21 04:24:23 $206.70 0% $0.00
ILMN Illumina, Inc. $323.55 2020-07-21 04:24:23 $323.55 0% $0.00
INCY Incyte Corporation $89.69 2020-07-21 04:24:23 $89.69 0% $0.00
IR Ingersoll-Rand PLC $38.27 2020-07-21 04:24:23 $38.27 0% $0.00
INTC Intel Corporation $48.20 2020-07-21 04:24:23 $48.20 0% $0.00
ICE Intercontinental Exchange Inc $98.95 2020-07-21 04:24:23 $98.95 0% $0.00
IFF International Flavors & Fragrances Inc $110.57 2020-07-21 04:24:23 $110.57 0% $0.00
IP International Paper Co $46.40 2020-07-21 04:24:23 $46.40 0% $0.00
IPG Interpublic Group of Companies Inc $19.34 2020-07-21 04:24:23 $19.34 0% $0.00
INTU Intuit Inc. $334.42 2020-07-21 04:24:23 $334.42 0% $0.00
ISRG Intuitive Surgical, Inc. $735.48 2020-07-21 04:24:23 $735.48 0% $0.00
IVZ Invesco Ltd. $13.98 2020-07-21 04:24:23 $13.98 0% $0.00
IPGP IPG Photonics Corporation $200.18 2020-07-21 04:24:23 $200.18 0% $0.00
IQV Iqvia Holdings Inc $167.47 2020-07-21 04:24:23 $167.47 0% $0.00
IRM Iron Mountain Inc $27.85 2020-07-21 04:24:23 $27.85 0% $0.00
JBHT J B Hunt Transport Services Inc $128.97 2020-07-21 04:24:23 $128.97 0% $0.00
SJM J M Smucker Co $115.54 2020-07-21 04:24:23 $115.54 0% $0.00
JKHY Jack Henry & Associates, Inc. $158.31 2020-07-21 04:24:23 $158.31 0% $0.00
JEC Jacobs Engineering Group Inc $0.07 2020-07-21 04:24:23 $0.07 0% $0.00
JEF Jefferies Financial Group Inc $20.35 2020-07-21 04:24:23 $20.35 0% $0.00
JNJ Johnson & Johnson $145.24 2020-07-21 04:24:23 $145.24 0% $0.00
JCI Johnson Controls International PLC $44.40 2020-07-21 04:24:23 $44.40 0% $0.00
JPM JPMorgan Chase & Co. $103.81 2020-07-21 04:24:23 $103.81 0% $0.00
JNPR Juniper Networks, Inc. $22.29 2020-07-21 04:24:23 $22.29 0% $0.00
KSU Kansas City Southern $184.46 2020-07-21 04:24:23 $184.46 0% $0.00
K Kellogg Company $66.76 2020-07-21 04:24:23 $66.76 0% $0.00
KEY KeyCorp $13.45 2020-07-21 04:24:23 $13.45 0% $0.00
KEYS Keysight Technologies Inc $107.88 2020-07-21 04:24:23 $107.88 0% $0.00
KMB Kimberly Clark Corp $136.88 2020-07-21 04:24:23 $136.88 0% $0.00
KIM Kimco Realty Corp $11.50 2020-07-21 04:24:23 $11.50 0% $0.00
KMI Kinder Morgan Inc $12.78 2020-07-21 04:24:23 $12.78 0% $0.00
KLAC KLA-Tencor Corp $177.41 2020-01-08 09:55:12 $203.17 14.52% $177.41
KHC Kraft Heinz Co $31.37 2020-01-08 09:55:12 $31.37 0% $0.00
KR Kroger Co $32.76 2020-01-08 09:55:12 $32.76 0% $0.00
LB L Brands Inc $34.76 2020-01-08 09:55:12 $34.76 0% $0.00
LLL L3 Technologies Inc $0.10 2020-01-08 09:55:12 $0.10 0% $0.00
LH Laboratory Corp. of America Holdings $207.49 2020-01-08 09:55:12 $207.49 0% $0.00
LRCX Lam Research Corporation $353.92 2020-01-08 09:55:12 $353.92 0% $0.00
LW Lamb Weston Holdings Inc $72.11 2020-01-08 09:55:12 $72.11 0% $0.00
LEG Leggett & Platt, Inc. $44.44 2020-01-08 09:55:12 $44.44 0% $0.00
LEN Lennar Corporation $78.27 2020-01-08 09:55:12 $78.27 0% $0.00
LNC Lincoln National Corporation $37.05 2020-01-08 09:55:12 $37.05 0% $0.00
LIN Linde PLC $234.27 2020-01-08 09:55:12 $234.27 0% $0.00
LKQ LKQ Corporation $32.88 2020-01-08 09:55:12 $32.88 0% $0.00
LMT Lockheed Martin Corporation $374.33 2020-01-08 09:55:12 $374.33 0% $0.00
L Loews Corporation $36.23 2020-01-08 09:55:12 $36.23 0% $0.00
LYB LyondellBasell Industries NV $76.90 2020-01-08 09:55:12 $76.90 0% $0.00
MTB M&T Bank Corporation $106.12 2020-01-08 09:55:12 $106.12 0% $0.00
MAC Macerich Co $7.49 2020-01-08 09:55:12 $7.49 0% $0.00
MRO Marathon Oil Corporation $4.44 2020-01-08 09:55:12 $4.44 0% $0.00
MPC Marathon Petroleum Corp $29.89 2020-01-08 09:55:12 $29.89 0% $0.00
MAR Marriott International Inc $101.76 2020-01-08 09:55:12 $101.76 0% $0.00
MMC Marsh & McLennan Companies, Inc. $113.70 2020-01-08 09:55:12 $113.70 0% $0.00
MLM Martin Marietta Materials, Inc. $262.41 2020-01-08 09:55:12 $262.41 0% $0.00
MAS Masco Corp $54.76 2020-01-08 09:55:12 $54.76 0% $0.00
MA Mastercard Inc $298.59 2020-01-02 05:37:57 $329.61 10.39% $4,069.70
MAT Mattel, Inc. $14.16 2020-01-02 05:37:57 $14.16 0% $0.00
MXIM Maxim Integrated Products Inc. $72.87 2020-01-02 05:37:57 $72.87 0% $0.00
MKC MCCORMICK & CO /SH NV $196.46 2020-01-02 05:37:57 $196.46 0% $0.00
MCK McKesson Corporation $156.41 2020-01-02 05:37:57 $156.41 0% $0.00
MDT Medtronic PLC $111.42 2020-01-02 05:37:57 $111.42 0% $0.00
MRK Merck & Co., Inc. $79.83 2020-01-02 05:37:57 $79.83 0% $0.00
MET Metlife Inc $40.94 2020-01-02 05:37:57 $40.94 0% $0.00
MTD Mettler-Toledo International Inc. $1,053.20 2020-01-02 05:37:57 $1,053.20 0% $0.00
MGM MGM Resorts International $23.36 2020-01-02 05:37:57 $23.36 0% $0.00
KORS Michael Kors Holdings Ltd $37.92 2020-01-02 05:37:57 $37.92 0% $0.00
MCHP Microchip Technology Inc. $112.52 2020-01-02 05:37:57 $112.52 0% $0.00
MU Micron Technology, Inc. $52.85 2020-01-02 05:37:57 $52.85 0% $0.00
MSFT Microsoft Corporation $172.78 2020-01-31 04:02:39 $216.23 25.15% $130,380.86
MAA Mid-America Apartment Communities Inc $118.71 2020-01-31 04:02:39 $118.71 0% $0.00
MHK Mohawk Industries, Inc. $104.68 2020-01-31 04:02:39 $104.68 0% $0.00
TAP Molson Coors Brewing Co Class B $35.68 2020-01-31 04:02:39 $35.68 0% $0.00
MDLZ MONDELEZ INTERNATIONAL INC Common Stock $56.61 2020-01-31 04:02:39 $56.61 0% $0.00
MNST Monster Beverage Corp $80.39 2020-01-31 04:02:39 $80.39 0% $0.00
MS Morgan Stanley $51.87 2020-01-31 04:02:39 $51.87 0% $0.00
MOS Mosaic Co $18.70 2020-01-31 04:02:39 $18.70 0% $0.00
MSI Motorola Solutions Inc $174.78 2020-01-31 04:02:39 $174.78 0% $0.00
MSCI Msci Inc $350.55 2020-01-31 04:02:39 $350.55 0% $0.00
MYL Mylan NV $15.69 2020-01-31 04:02:39 $15.69 0% $0.00
NDAQ Nasdaq Inc $129.12 2020-01-31 04:02:39 $129.12 0% $0.00
NOV National-Oilwell Varco, Inc. $9.19 2020-01-31 04:02:39 $9.19 0% $0.00
NKTR Nektar Therapeutics $17.54 2020-01-31 04:02:39 $17.54 0% $0.00
NTAP NetApp Inc. $46.89 2020-01-31 04:02:39 $46.89 0% $0.00
NFLX Netflix, Inc. $335.66 2020-01-10 08:33:03 $488.28 45.47% $30,233.40
NWL Newell Brands Inc $18.00 2020-01-10 08:33:03 $18.00 0% $0.00
NFX Newfield Exploration Co. $3.54 2020-01-10 08:33:03 $3.54 0% $0.00
NEM Newmont Mining Corp $46.78 2020-02-20 09:33:36 $60.47 29.26% -$9,646.35
NWSA News Corp Class A $13.98 2020-02-20 09:33:36 $13.98 0% $0.00
NWS News Corp Class B $13.91 2020-02-20 09:33:36 $13.91 0% $0.00
NEE NextEra Energy Inc $303.07 2020-02-20 09:33:36 $303.07 0% $0.00
NLSN Nielsen Holdings PLC $14.18 2020-02-20 09:33:36 $14.18 0% $0.00
NKE Nike Inc $101.65 2020-01-08 09:57:27 $129.99 27.88% $203.30
NI NiSource Inc. $24.31 2020-01-08 09:57:27 $24.31 0% $0.00
JWN Nordstrom, Inc. $14.33 2020-01-08 09:57:27 $14.33 0% $0.00
NSC Norfolk Southern Corp. $215.40 2020-01-08 09:57:27 $215.40 0% $0.00
NTRS Northern Trust Corporation $84.41 2020-01-08 09:57:27 $84.41 0% $0.00
NOC Northrop Grumman Corporation $308.43 2020-01-08 09:57:27 $308.43 0% $0.00
NCLH Norwegian Cruise Line Holdings Ltd $18.35 2020-01-08 09:57:27 $18.35 0% $0.00
NRG NRG Energy Inc $33.67 2020-01-08 09:57:27 $33.67 0% $0.00
NUE Nucor Corporation $50.19 2020-01-08 09:57:27 $50.19 0% $0.00
NVDA NVIDIA Corporation $245.44 2020-03-10 02:27:57 $543.61 121.48% $17,605.54
OXY Occidental Petroleum Corporation $10.02 2020-03-10 02:27:57 $10.02 0% $0.00
OMC Omnicom Group Inc. $52.72 2020-03-10 02:27:57 $52.72 0% $0.00
OKE ONEOK, Inc. $30.55 2020-03-10 02:27:57 $30.55 0% $0.00
ORCL Oracle Corporation $59.90 2020-03-10 02:27:57 $59.90 0% $0.00
PCAR PACCAR Inc $92.64 2020-03-10 02:27:57 $92.64 0% $0.00
PKG Packaging Corp Of America $119.20 2020-03-10 02:27:57 $119.20 0% $0.00
PH Parker-Hannifin Corp $226.16 2020-03-10 02:27:57 $226.16 0% $0.00
PAYX Paychex, Inc. $85.03 2020-03-10 02:27:57 $85.03 0% $0.00
PYPL Paypal Holdings Inc $203.04 2020-03-10 02:27:57 $203.04 0% $0.00
PNR Pentair PLC $51.97 2020-03-10 02:27:57 $51.97 0% $0.00
PEP PepsiCo, Inc. $139.56 2020-03-10 02:27:57 $139.56 0% $0.00
PKI PerkinElmer, Inc. $124.45 2020-03-10 02:27:57 $124.45 0% $0.00
PRGO Perrigo Company PLC $45.62 2020-03-10 02:27:57 $45.62 0% $0.00
PFE Pfizer Inc. $36.50 2020-07-21 05:54:43 $38.18 4.6% $1,783.09
PCG PG&E Corporation $10.25 2020-07-21 05:54:43 $10.25 0% $0.00
PM Philip Morris International Inc. $74.45 2020-07-21 05:54:43 $74.45 0% $0.00
PSX Phillips 66 $50.48 2020-07-21 05:54:43 $50.48 0% $0.00
PNW Pinnacle West Capital Corporation $86.73 2020-07-21 05:54:43 $86.73 0% $0.00
PXD Pioneer Natural Resources $85.54 2020-07-21 05:54:43 $85.54 0% $0.00
PNC PNC Financial Services Group Inc $114.81 2020-07-21 05:54:43 $114.81 0% $0.00
PPG PPG Industries, Inc. $134.27 2020-07-21 05:54:43 $134.27 0% $0.00
PPL PPL Corp $28.67 2020-07-21 05:54:43 $28.67 0% $0.00
PFG Principal Financial Group Inc $43.52 2020-07-21 05:54:43 $43.52 0% $0.00
PG Procter & Gamble Co $124.90 2020-01-02 05:41:26 $142.38 14% $1,249.00
PGR Progressive Corp $94.62 2020-01-02 05:41:26 $94.62 0% $0.00
PLD Prologis Inc $103.24 2020-01-02 05:41:26 $103.24 0% $0.00
PRU Prudential Financial Inc $68.73 2020-01-02 05:41:26 $68.73 0% $0.00
PEG Public Service Enterprise Group Inc. $60.92 2020-01-02 05:41:26 $60.92 0% $0.00
PSA Public Storage $235.72 2020-01-02 05:41:26 $235.72 0% $0.00
PHM PulteGroup, Inc. $43.99 2020-01-02 05:41:26 $43.99 0% $0.00
PVH PVH Corp $64.94 2020-01-02 05:41:26 $64.94 0% $0.00
QRVO Qorvo Inc $135.70 2020-01-02 05:41:26 $135.70 0% $0.00
QCOM QUALCOMM, Inc. $128.88 2020-01-02 05:41:26 $128.88 0% $0.00
PWR Quanta Services Inc $62.27 2020-01-02 05:41:26 $62.27 0% $0.00
DGX Quest Diagnostics Inc $127.13 2020-01-02 05:41:26 $127.13 0% $0.00
RL Ralph Lauren Corp $77.39 2020-01-02 05:41:26 $77.39 0% $0.00
RJF Raymond James Financial, Inc. $81.11 2020-01-02 05:41:26 $81.11 0% $0.00
RTN Raytheon Company $43.80 2020-01-02 05:41:26 $43.80 0% $0.00
O Realty Income Corp $60.75 2020-01-02 05:41:26 $60.75 0% $0.00
RHT Red Hat Inc $0.26 2020-01-02 05:41:26 $0.26 0% $0.00
REG Regency Centers Corp $38.29 2020-01-02 05:41:26 $38.29 0% $0.00
REGN Regeneron Pharmaceuticals Inc $658.21 2020-07-21 05:54:06 $579.81 -11.91% $381.36
RF Regions Financial Corp $13.78 2020-07-21 05:54:06 $13.78 0% $0.00
RSG Republic Services, Inc. $92.87 2020-07-21 05:54:06 $92.87 0% $0.00
RMD ResMed Inc. $183.03 2020-07-21 05:54:06 $183.03 0% $0.00
RHI Robert Half International Inc. $51.67 2020-07-21 05:54:06 $51.67 0% $0.00
ROK Rockwell Automation $243.10 2020-07-21 05:54:06 $243.10 0% $0.00
ROL Rollins, Inc. $33.75 2020-01-10 06:57:33 $60.20 78.37% $1,687.50
ROP Roper Technologies Inc $428.60 2020-01-10 06:57:33 $428.60 0% $0.00
ROST Ross Stores, Inc. $95.43 2020-01-10 06:57:33 $95.43 0% $0.00
RCL Royal Caribbean Cruises Ltd $64.48 2020-01-10 06:57:33 $64.48 0% $0.00
SPGI S&P Global Inc $337.43 2020-01-10 06:57:33 $337.43 0% $0.00
CRM salesforce.com, inc. $250.52 2020-01-10 06:57:33 $250.52 0% $0.00
SBAC SBA Communications Corporation $302.11 2020-01-10 06:57:33 $302.11 0% $0.00
SCG SCANA Corporation $2.27 2020-01-10 06:57:33 $2.27 0% $0.00
SLB Schlumberger Limited. $15.40 2020-01-10 06:57:33 $15.40 0% $0.00
STX Seagate Technology PLC $50.74 2020-01-10 06:57:33 $50.74 0% $0.00
SEE Sealed Air Corp $41.29 2020-01-10 06:57:33 $41.29 0% $0.00
SRE Sempra Energy $133.86 2020-01-10 06:57:33 $133.86 0% $0.00
SHW Sherwin-Williams Co $683.31 2020-01-10 06:57:33 $683.31 0% $0.00
SPG Simon Property Group Inc $66.88 2020-01-10 06:57:33 $66.88 0% $0.00
SWKS Skyworks Solutions Inc $149.76 2020-01-10 06:57:33 $149.76 0% $0.00
SLG SL Green Realty Corp $47.39 2020-01-10 06:57:33 $47.39 0% $0.00
SNA Snap-on Incorporated $169.39 2020-01-10 06:57:33 $169.39 0% $0.00
SO Southern Co $60.85 2020-01-10 06:57:33 $60.85 0% $0.00
LUV Southwest Airlines Co $42.79 2020-01-10 06:57:33 $42.79 0% $0.00
SPY SPDR S&P 500 ETF $321.86 2020-01-02 00:49:11 $345.78 7.43% $99,768.28
SWK Stanley Black & Decker, Inc. $178.01 2020-01-02 00:49:11 $178.01 0% $0.00
SBUX Starbucks Corporation $90.80 2020-01-02 00:49:11 $90.80 0% $0.00
STT State Street Corp $65.31 2020-01-02 00:49:11 $65.31 0% $0.00
SYK Stryker Corporation $221.90 2020-01-02 00:49:11 $221.90 0% $0.00
STI SunTrust Banks, Inc. $59.61 2020-01-02 00:49:11 $59.61 0% $0.00
SIVB SVB Financial Group $296.38 2020-01-02 00:49:11 $296.38 0% $0.00
SYMC Symantec Corporation $23.07 2020-01-02 00:49:11 $23.07 0% $0.00
SYF Synchrony Financial $27.75 2020-01-02 00:49:11 $27.75 0% $0.00
SNPS Synopsys, Inc. $226.74 2020-01-02 00:49:11 $226.74 0% $0.00
SYY SYSCO Corporation $64.80 2020-01-02 00:49:11 $64.80 0% $0.00
TROW T. Rowe Price Group Inc $148.10 2020-01-02 00:49:11 $148.10 0% $0.00
TTWO TAKE-TWO INTERACTIVE SOFTWARE, INC Common Stock $164.43 2020-01-02 00:49:11 $164.43 0% $0.00
TPR Tapestry Inc $21.43 2020-01-02 00:49:11 $21.43 0% $0.00
TGT Target Corporation $160.23 2020-01-02 00:49:11 $160.23 0% $0.00
TEL TE Connectivity Ltd $106.30 2020-01-02 00:49:11 $106.30 0% $0.00
FTI TechnipFMC PLC $6.47 2020-01-02 00:49:11 $6.47 0% $0.00
TSLA Tesla Inc $650.57 2020-02-01 04:07:17 $420.63 -35.34% $427,034.09
TXN Texas Instruments Incorporated $149.96 2020-02-01 04:07:17 $149.96 0% $0.00
TXT Textron Inc. $35.19 2020-02-01 04:07:17 $35.19 0% $0.00
KO The Coca-Cola Co $58.86 2020-01-31 06:29:14 $50.52 -14.17% $1,977.83
WU The Western Union Company $21.97 2020-01-31 06:29:14 $21.97 0% $0.00
TMO Thermo Fisher Scientific Inc. $480.17 2020-01-31 06:29:14 $480.17 0% $0.00
TIF Tiffany & Co. $123.54 2020-01-31 06:29:14 $123.54 0% $0.00
TJX TJX Companies Inc $57.02 2020-01-31 06:29:14 $57.02 0% $0.00
TSS Total System Services, Inc. $9.10 2020-01-31 06:29:14 $9.10 0% $0.00
TSCO Tractor Supply Company $139.82 2020-01-31 06:29:14 $139.82 0% $0.00
TDG TransDigm Group Incorporated $501.97 2020-01-31 06:29:14 $501.97 0% $0.00
TRV Travelers Companies Inc $125.97 2020-01-31 06:29:14 $125.97 0% $0.00
TRIP Tripadvisor Inc Common Stock $20.91 2020-01-31 06:29:14 $20.91 0% $0.00
FOXA Twenty-First Century Fox Inc Class A $27.08 2020-01-31 06:29:14 $27.08 0% $0.00
FOX Twenty-First Century Fox Inc Class B $26.94 2020-01-31 06:29:14 $26.94 0% $0.00
TWTR Twitter Inc $50.44 2020-01-31 06:29:14 $50.44 0% $0.00
TSN Tyson Foods, Inc. $60.05 2020-01-31 06:29:14 $60.05 0% $0.00
USB U.S. Bancorp $40.66 2020-01-31 06:29:14 $40.66 0% $0.00
UDR UDR, Inc. $32.79 2020-01-31 06:29:14 $32.79 0% $0.00
ULTA Ulta Beauty Inc $235.11 2020-01-31 06:29:14 $235.11 0% $0.00
UAA Under Armour Inc Class A $14.66 2020-01-31 06:29:14 $14.66 0% $0.00
UA Under Armour Inc Class C $12.74 2020-01-31 06:29:14 $12.74 0% $0.00
UNP Union Pacific Corporation $188.14 2020-01-31 06:29:14 $188.14 0% $0.00
UAL United Continental Holdings Inc $38.01 2020-01-31 06:29:14 $38.01 0% $0.00
UPS United Parcel Service, Inc. $171.90 2020-01-31 06:29:14 $171.90 0% $0.00
URI United Rentals, Inc. $188.24 2020-01-31 06:29:14 $188.24 0% $0.00
UTX United Technologies Corporation $99.20 2020-01-31 06:29:14 $99.20 0% $0.00
UNH UnitedHealth Group Inc $330.60 2020-01-31 06:29:14 $330.60 0% $0.00
UHS Universal Health Services, Inc. Class B $115.58 2020-01-31 06:29:14 $115.58 0% $0.00
UNM Unum Group $20.02 2020-01-31 06:29:14 $20.02 0% $0.00
VLO Valero Energy Corporation $41.97 2020-01-31 06:29:14 $41.97 0% $0.00
VEU Vanguard FTSE All-Wld ex-US ETF $53.75 2020-01-02 00:49:11 $51.93 -3.39% $99,927.11
VOO Vanguard S&P 500 ETF $295.80 2020-01-02 00:49:11 $317.65 7.39% $176,248.80
BND Vanguard Total Bond Market ETF $83.86 2020-01-02 00:49:11 $87.70 4.58% $99,851.82
VTI Vanguard Total Stock Market ETF $163.62 2020-01-02 00:49:11 $176.84 8.08% $163,782.41
VT Vanguard Total World Stock ETF $80.99 2020-01-02 00:49:11 $83.45 3.04% $115,764.34
VAR Varian Medical Systems, Inc. $172.56 2020-01-02 00:49:11 $172.56 0% $0.00
VTR Ventas, Inc. $42.24 2020-01-02 00:49:11 $42.24 0% $0.00
VRSN Verisign, Inc. $200.80 2020-01-02 00:49:11 $200.80 0% $0.00
VRSK Verisk Analytics, Inc. $189.25 2020-01-02 00:49:11 $189.25 0% $0.00
VZ Verizon Communications Inc. $57.96 2020-01-02 00:49:11 $57.96 0% $0.00
VRTX Vertex Pharmaceuticals Incorporated $211.58 2020-01-02 00:49:11 $211.58 0% $0.00
VFC VF Corp $74.83 2020-01-02 00:49:11 $74.83 0% $0.00
VIAB Viacom, Inc. Class B $24.37 2020-01-02 00:49:11 $24.37 0% $0.00
V Visa Inc Class A $198.97 2020-02-01 01:03:28 $198.01 -0.48% $5,531.42
VNO Vornado Realty Trust $34.07 2020-02-01 01:03:28 $34.07 0% $0.00
VMC Vulcan Materials Company $145.41 2020-02-01 01:03:28 $145.41 0% $0.00
GWW W W Grainger Inc $361.03 2020-02-01 01:03:28 $361.03 0% $0.00
WBA Walgreens Boots Alliance Inc $38.04 2020-02-01 01:03:28 $38.04 0% $0.00
WMT Walmart Inc $118.84 2020-01-02 05:42:42 $143.85 21.05% $1,188.40
DIS Walt Disney Co $128.35 2020-01-02 05:42:42 $128.35 0% $0.00
WM Waste Management, Inc. $116.70 2020-01-02 05:42:42 $116.70 0% $0.00
WAT Waters Corporation $221.95 2020-01-02 05:42:42 $221.95 0% $0.00
WEC WEC Energy Group Inc $102.16 2020-01-02 05:42:42 $102.16 0% $0.00
WCG WellCare Health Plans, Inc. $0.16 2020-01-02 05:42:42 $0.16 0% $0.00
WFC Wells Fargo & Co $23.28 2020-01-02 05:42:42 $23.28 0% $0.00
WELL Welltower Inc $56.26 2020-01-02 05:42:42 $56.26 0% $0.00
WDC Western Digital Corp $41.72 2020-01-02 05:42:42 $41.72 0% $0.00
WRK Westrock Co $40.24 2020-01-02 05:42:42 $40.24 0% $0.00
WY Weyerhaeuser Co $29.43 2020-01-02 05:42:42 $29.43 0% $0.00
WHR Whirlpool Corporation $198.11 2020-01-02 05:42:42 $198.11 0% $0.00
WMB Williams Companies Inc $19.96 2020-01-02 05:42:42 $19.96 0% $0.00
WLTW Willis Towers Watson PLC $209.75 2020-01-02 05:42:42 $209.75 0% $0.00
WYNN Wynn Resorts, Limited $126.16 2020-02-01 01:02:01 $76.56 -39.32% $29,096.83
XEL Xcel Energy Inc $71.47 2020-02-01 01:02:01 $71.47 0% $0.00
XRX Xerox Corp $19.73 2020-02-01 01:02:01 $19.73 0% $0.00
XLNX Xilinx, Inc. $116.82 2020-02-01 01:02:01 $116.82 0% $0.00
XYL Xylem Inc $91.59 2020-02-01 01:02:01 $91.59 0% $0.00
YUM Yum! Brands, Inc. $101.28 2020-02-01 01:02:01 $101.28 0% $0.00
ZBH Zimmer Biomet Holdings Inc $142.71 2020-02-01 01:02:01 $142.71 0% $0.00
ZION Zions Bancorp $33.20 2020-02-01 01:02:01 $33.20 0% $0.00
ZTS Zoetis Inc $163.49 2020-02-01 01:02:01 $163.49 0% $0.00